createdAt,value
2019-01-26T00:01:04.726Z,3.40
2019-01-26T00:03:36.282Z,3.40
2019-01-26T00:06:08.110Z,3.50
2019-01-26T00:08:39.430Z,3.50
2019-01-26T00:11:10.953Z,3.50
2019-01-26T00:13:42.354Z,3.50
2019-01-26T00:16:13.717Z,3.60
2019-01-26T00:18:45.135Z,3.60
2019-01-26T00:21:16.556Z,3.70
2019-01-26T00:23:47.870Z,3.70
2019-01-26T00:26:19.179Z,3.80
2019-01-26T00:28:50.393Z,3.90
2019-01-26T00:31:21.760Z,3.90
2019-01-26T00:33:53.305Z,4.00
2019-01-26T00:36:24.569Z,4.10
2019-01-26T00:38:55.864Z,4.10
2019-01-26T00:41:27.109Z,4.00
2019-01-26T00:43:58.386Z,4.10
2019-01-26T00:46:29.636Z,4.10
2019-01-26T00:49:00.887Z,4.10
2019-01-26T00:51:32.174Z,4.10
2019-01-26T00:54:03.463Z,4.10
2019-01-26T00:56:34.830Z,4.10
2019-01-26T00:59:06.548Z,4.10
2019-01-26T01:01:37.833Z,4.20
2019-01-26T01:04:09.212Z,4.20
2019-01-26T01:06:40.628Z,4.20
2019-01-26T01:09:16.977Z,4.30
2019-01-26T01:11:57.590Z,4.40
2019-01-26T01:14:38.882Z,4.40
2019-01-26T01:17:24.338Z,4.40
2019-01-26T01:20:01.087Z,4.40
2019-01-26T01:22:33.501Z,4.50
2019-01-26T01:25:05.750Z,4.50
2019-01-26T01:27:37.110Z,4.50
2019-01-26T01:30:11.445Z,4.50
2019-01-26T01:32:42.786Z,4.50
2019-01-26T01:35:14.286Z,4.60
2019-01-26T01:37:45.593Z,4.60
2019-01-26T01:40:17.502Z,4.60
2019-01-26T01:42:48.834Z,4.60
2019-01-26T01:45:21.205Z,4.60
2019-01-26T01:47:52.629Z,4.60
2019-01-26T01:50:23.988Z,4.60
2019-01-26T01:52:55.289Z,4.70
2019-01-26T01:55:26.597Z,4.70
2019-01-26T01:57:57.887Z,4.70
2019-01-26T02:00:29.643Z,4.70
2019-01-26T02:03:01.046Z,4.70
2019-01-26T02:05:32.438Z,4.70
2019-01-26T02:08:03.790Z,4.70
2019-01-26T02:10:35.343Z,4.80
2019-01-26T02:13:06.957Z,4.80
2019-01-26T02:15:41.606Z,4.80
2019-01-26T02:18:12.894Z,4.70
2019-01-26T02:20:44.175Z,4.70
2019-01-26T02:23:15.510Z,4.70
2019-01-26T02:25:46.719Z,4.70
2019-01-26T02:28:18.038Z,4.70
2019-01-26T02:30:49.504Z,4.70
2019-01-26T02:33:20.902Z,4.70
2019-01-26T02:35:52.125Z,4.60
2019-01-26T02:38:25.442Z,4.60
2019-01-26T02:40:56.838Z,4.70
2019-01-26T02:43:28.192Z,4.60
2019-01-26T02:45:59.687Z,4.60
2019-01-26T02:48:31.072Z,4.60
2019-01-26T02:51:02.363Z,4.60
2019-01-26T02:53:33.711Z,4.60
2019-01-26T02:56:04.997Z,4.60
2019-01-26T02:58:36.308Z,4.70
2019-01-26T03:01:07.824Z,4.60
2019-01-26T03:03:40.783Z,4.60
2019-01-26T03:06:12.261Z,4.70
2019-01-26T03:08:43.535Z,4.70
2019-01-26T03:11:14.899Z,4.70
2019-01-26T03:13:46.245Z,4.80
2019-01-26T03:16:17.589Z,4.80
2019-01-26T03:18:48.866Z,4.80
2019-01-26T03:21:20.226Z,4.90
2019-01-26T03:23:51.683Z,5.00
2019-01-26T03:26:23.278Z,5.00
2019-01-26T03:28:54.554Z,5.00
2019-01-26T03:31:25.850Z,5.00
2019-01-26T03:33:57.298Z,5.00
2019-01-26T03:36:28.744Z,5.00
2019-01-26T03:39:00.111Z,5.10
2019-01-26T03:41:31.659Z,5.10
2019-01-26T03:44:03.058Z,5.10
2019-01-26T03:46:34.358Z,5.10
2019-01-26T03:49:05.803Z,5.00
2019-01-26T03:51:37.117Z,5.10
2019-01-26T03:54:08.503Z,5.10
2019-01-26T03:56:39.807Z,5.10
2019-01-26T03:59:11.188Z,5.10
2019-01-26T04:01:43.653Z,5.20
2019-01-26T04:04:15.029Z,5.20
2019-01-26T04:06:46.394Z,5.20
2019-01-26T04:09:17.706Z,5.20
2019-01-26T04:11:48.935Z,5.30
2019-01-26T04:14:20.402Z,5.20
2019-01-26T04:16:51.740Z,5.30
2019-01-26T04:19:23.087Z,5.40
2019-01-26T04:21:54.459Z,5.40
2019-01-26T04:24:25.734Z,5.40
2019-01-26T04:26:57.009Z,5.40
2019-01-26T04:29:28.277Z,5.50
2019-01-26T04:31:59.513Z,5.50
2019-01-26T04:34:30.813Z,5.50
2019-01-26T04:37:02.013Z,5.50
2019-01-26T04:39:33.321Z,5.50
2019-01-26T04:42:04.646Z,5.60
2019-01-26T04:44:35.907Z,5.60
2019-01-26T04:47:07.164Z,5.60
2019-01-26T04:49:38.485Z,5.70
2019-01-26T04:52:09.882Z,5.70
2019-01-26T04:54:41.106Z,5.70
2019-01-26T04:57:12.351Z,5.70
2019-01-26T04:59:43.571Z,5.70
2019-01-26T05:02:15.010Z,5.70
2019-01-26T05:04:46.380Z,5.70
2019-01-26T05:07:17.779Z,5.80
2019-01-26T05:09:49.087Z,5.80
2019-01-26T05:12:20.391Z,5.80
2019-01-26T05:14:51.795Z,5.80
2019-01-26T05:17:23.064Z,5.80
2019-01-26T05:19:54.277Z,5.90
2019-01-26T05:22:25.586Z,5.90
2019-01-26T05:24:56.822Z,5.80
2019-01-26T05:27:28.170Z,5.80
2019-01-26T05:29:59.501Z,5.80
2019-01-26T05:32:30.831Z,5.80
2019-01-26T05:35:02.142Z,5.80
2019-01-26T05:37:33.431Z,5.80
2019-01-26T05:40:05.061Z,5.90
2019-01-26T05:42:36.360Z,5.90
2019-01-26T05:45:10.585Z,5.90
2019-01-26T05:47:48.096Z,5.90
2019-01-26T05:50:22.613Z,5.90
2019-01-26T05:52:54.336Z,5.90
2019-01-26T05:55:25.770Z,5.90
2019-01-26T05:57:57.169Z,5.80
2019-01-26T06:00:36.685Z,5.90
2019-01-26T06:03:08.089Z,5.90
2019-01-26T06:05:39.368Z,5.90
2019-01-26T06:08:10.791Z,6.00
2019-01-26T06:10:42.214Z,6.00
2019-01-26T06:13:13.567Z,6.00
2019-01-26T06:15:44.908Z,6.00
2019-01-26T06:18:17.093Z,6.00
2019-01-26T06:20:48.540Z,6.00
2019-01-26T06:23:19.779Z,6.00
2019-01-26T06:25:51.152Z,6.00
2019-01-26T06:28:22.371Z,6.00
2019-01-26T06:30:53.709Z,6.00
2019-01-26T06:33:25.053Z,6.00
2019-01-26T06:35:56.318Z,6.00
2019-01-26T06:38:27.574Z,6.00
2019-01-26T06:40:58.794Z,6.00
2019-01-26T06:43:30.132Z,6.00
2019-01-26T06:46:01.327Z,6.00
2019-01-26T06:48:32.604Z,6.00
2019-01-26T06:51:03.918Z,6.10
2019-01-26T06:53:35.191Z,6.10
2019-01-26T06:56:06.667Z,6.10
2019-01-26T06:58:37.985Z,6.00
2019-01-26T07:01:09.255Z,6.10
2019-01-26T07:03:40.577Z,6.00
2019-01-26T07:06:22.232Z,6.00
2019-01-26T07:08:53.523Z,6.00
2019-01-26T07:11:25.077Z,6.00
2019-01-26T07:13:57.919Z,6.00
2019-01-26T07:16:29.266Z,6.00
2019-01-26T07:19:00.615Z,6.00
2019-01-26T07:21:31.994Z,6.00
2019-01-26T07:24:03.261Z,6.00
2019-01-26T07:26:41.994Z,6.00
2019-01-26T07:29:14.306Z,6.00
2019-01-26T07:31:45.731Z,6.10
2019-01-26T07:34:17.112Z,6.10
2019-01-26T07:36:48.331Z,6.00
2019-01-26T07:39:20.167Z,6.00
2019-01-26T07:41:52.002Z,6.10
2019-01-26T07:44:23.392Z,6.00
2019-01-26T07:46:54.747Z,6.10
2019-01-26T07:49:26.072Z,6.10
2019-01-26T07:51:57.397Z,6.10
2019-01-26T07:54:28.562Z,6.20
2019-01-26T07:57:01.013Z,6.20
2019-01-26T07:59:32.359Z,6.20
2019-01-26T08:02:03.709Z,6.10
2019-01-26T08:04:35.145Z,6.10
2019-01-26T08:07:16.238Z,6.20
2019-01-26T08:09:47.543Z,6.10
2019-01-26T08:12:18.823Z,6.10
2019-01-26T08:14:50.088Z,6.20
2019-01-26T08:17:21.326Z,6.20
2019-01-26T08:19:52.515Z,6.30
2019-01-26T08:22:23.864Z,6.30
2019-01-26T08:24:56.967Z,6.30
2019-01-26T08:27:28.302Z,6.30
2019-01-26T08:29:59.619Z,6.30
2019-01-26T08:32:30.909Z,6.30
2019-01-26T08:35:02.243Z,6.20
2019-01-26T08:37:33.541Z,6.20
2019-01-26T08:40:05.224Z,6.20
2019-01-26T08:42:36.598Z,6.20
2019-01-26T08:45:11.214Z,6.20
2019-01-26T08:47:45.312Z,6.20
2019-01-26T08:50:26.329Z,6.20
2019-01-26T08:53:02.178Z,6.20
2019-01-26T08:55:37.696Z,6.10
2019-01-26T08:58:09.119Z,6.20
2019-01-26T09:00:40.390Z,6.20
2019-01-26T09:03:42.807Z,6.10
2019-01-26T09:06:39.026Z,6.10
2019-01-26T09:09:15.267Z,6.10
2019-01-26T09:11:46.856Z,6.10
2019-01-26T09:14:18.117Z,6.10
2019-01-26T09:16:49.379Z,6.10
2019-01-26T09:19:20.757Z,6.10
2019-01-26T09:21:52.182Z,6.00
2019-01-26T09:24:23.493Z,6.00
2019-01-26T09:26:54.797Z,6.00
2019-01-26T09:29:26.133Z,6.00
2019-01-26T09:31:57.377Z,6.00
2019-01-26T09:34:28.874Z,6.00
2019-01-26T09:37:00.247Z,6.00
2019-01-26T09:39:31.549Z,6.00
2019-01-26T09:42:02.983Z,6.00
2019-01-26T09:44:34.229Z,6.00
2019-01-26T09:47:05.595Z,6.00
2019-01-26T09:49:36.975Z,6.00
2019-01-26T09:52:26.890Z,6.00
2019-01-26T09:54:58.273Z,6.00
2019-01-26T09:57:30.204Z,6.00
2019-01-26T10:00:01.553Z,6.00
2019-01-26T10:02:32.802Z,6.00
2019-01-26T10:05:04.204Z,6.00
2019-01-26T10:07:35.541Z,6.00
2019-01-26T10:10:07.749Z,6.00
2019-01-26T10:12:39.150Z,6.10
2019-01-26T10:15:13.701Z,6.10
2019-01-26T10:17:46.186Z,6.00
2019-01-26T10:20:27.101Z,6.10
2019-01-26T10:22:58.543Z,6.10
2019-01-26T10:25:29.681Z,6.10
2019-01-26T10:28:01.281Z,6.00
2019-01-26T10:30:39.767Z,6.10
2019-01-26T10:33:11.268Z,6.10
2019-01-26T10:36:16.831Z,6.10
2019-01-26T10:39:08.542Z,6.10
2019-01-26T10:41:46.178Z,6.10
2019-01-26T10:44:32.457Z,6.20
2019-01-26T10:47:03.826Z,6.10
2019-01-26T10:49:35.216Z,6.10
2019-01-26T10:52:06.892Z,6.10
2019-01-26T10:54:38.246Z,6.10
2019-01-26T10:57:09.806Z,6.10
2019-01-26T10:59:41.161Z,6.10
2019-01-26T11:02:12.700Z,6.20
2019-01-26T11:04:44.057Z,6.10
2019-01-26T11:07:15.892Z,6.20
2019-01-26T11:09:47.117Z,6.20
2019-01-26T11:12:20.001Z,6.20
2019-01-26T11:14:51.386Z,6.20
2019-01-26T11:17:22.781Z,6.30
2019-01-26T11:19:54.241Z,6.30
2019-01-26T11:22:25.433Z,6.40
2019-01-26T11:24:56.826Z,6.40
2019-01-26T11:27:28.256Z,6.40
2019-01-26T11:30:00.870Z,6.40
2019-01-26T11:32:32.200Z,6.40
2019-01-26T11:35:03.671Z,6.40
2019-01-26T11:37:34.919Z,6.40
2019-01-26T11:40:17.246Z,6.40
2019-01-26T11:42:48.636Z,6.40
2019-01-26T11:45:30.553Z,6.50
2019-01-26T11:48:03.087Z,6.50
2019-01-26T11:50:39.945Z,6.50
2019-01-26T11:53:11.334Z,6.50
2019-01-26T11:56:01.429Z,6.60
2019-01-26T11:58:32.814Z,6.70
2019-01-26T12:01:21.634Z,6.70
2019-01-26T12:04:01.455Z,6.70
2019-01-26T12:06:39.331Z,6.80
2019-01-26T12:09:12.991Z,6.80
2019-01-26T12:11:44.477Z,6.90
2019-01-26T12:14:18.167Z,6.90
2019-01-26T12:16:49.476Z,6.90
2019-01-26T12:19:22.481Z,6.90
2019-01-26T12:21:54.030Z,6.90
2019-01-26T12:27:23.098Z,6.90
2019-01-26T12:29:55.075Z,6.90
2019-01-26T12:32:26.723Z,6.90
2019-01-26T12:34:57.965Z,6.80
2019-01-26T12:37:29.243Z,6.70
2019-01-26T12:40:00.655Z,6.70
2019-01-26T12:42:32.452Z,6.80
2019-01-26T12:45:22.685Z,6.90
2019-01-26T12:47:54.179Z,6.80
2019-01-26T12:50:25.626Z,6.90
2019-01-26T12:52:56.987Z,6.90
2019-01-26T12:55:28.949Z,7.10
2019-01-26T12:58:06.728Z,7.20
2019-01-26T13:00:38.151Z,7.20
2019-01-26T13:03:09.488Z,7.20
2019-01-26T13:05:43.662Z,7.20
2019-01-26T13:08:15.326Z,7.20
2019-01-26T13:10:59.658Z,7.10
2019-01-26T13:13:31.159Z,7.10
2019-01-26T13:16:02.472Z,7.10
2019-01-26T13:18:34.154Z,7.00
2019-01-26T13:21:11.861Z,7.00
2019-01-26T13:23:43.519Z,7.00
2019-01-26T13:26:14.907Z,7.00
2019-01-26T13:28:46.300Z,7.10
2019-01-26T13:31:18.843Z,7.00
2019-01-26T13:33:50.242Z,7.00
2019-01-26T13:36:24.210Z,7.00
2019-01-26T13:38:54.107Z,7.00
2019-01-26T13:41:24.207Z,7.00
2019-01-26T13:43:54.239Z,7.00
2019-01-26T13:46:24.187Z,6.90
2019-01-26T13:48:56.732Z,7.00
2019-01-26T13:51:26.652Z,7.00
2019-01-26T13:53:56.665Z,6.90
2019-01-26T13:56:26.708Z,6.90
2019-01-26T13:58:56.737Z,6.90
2019-01-26T14:01:26.711Z,7.00
2019-01-26T14:03:56.718Z,6.90
2019-01-26T14:06:26.658Z,7.00
2019-01-26T14:08:56.572Z,7.00
2019-01-26T14:11:31.554Z,7.00
2019-01-26T14:14:01.594Z,7.10
2019-01-26T14:16:31.677Z,7.20
2019-01-26T14:19:01.671Z,7.10
2019-01-26T14:21:31.698Z,7.10
2019-01-26T14:24:01.575Z,7.00
2019-01-26T14:26:31.480Z,7.00
2019-01-26T14:29:09.926Z,7.00
2019-01-26T14:31:45.142Z,7.00
2019-01-26T14:34:15.056Z,6.90
2019-01-26T14:36:45.026Z,6.90
2019-01-26T14:39:15.116Z,6.90
2019-01-26T14:41:45.043Z,7.00
2019-01-26T14:44:15.084Z,7.00
2019-01-26T14:46:44.948Z,7.00
2019-01-26T14:49:20.157Z,7.10
2019-01-26T14:51:50.148Z,7.00
2019-01-26T14:54:20.081Z,7.00
2019-01-26T14:56:50.124Z,7.00
2019-01-26T14:59:20.106Z,7.00
2019-01-26T15:01:49.916Z,7.00
2019-01-26T15:04:46.990Z,7.00
2019-01-26T15:07:16.892Z,7.00
2019-01-26T15:09:46.882Z,7.00
2019-01-26T15:12:16.761Z,6.90
2019-01-26T15:14:46.643Z,6.90
2019-01-26T15:17:16.514Z,6.90
2019-01-26T15:19:46.398Z,6.90
2019-01-26T15:22:16.387Z,6.90
2019-01-26T15:24:46.346Z,6.90
2019-01-26T15:27:16.252Z,6.90
2019-01-26T15:29:48.828Z,6.90
2019-01-26T15:32:18.829Z,6.90
2019-01-26T15:34:50.555Z,6.80
2019-01-26T15:37:20.435Z,6.80
2019-01-26T15:39:50.307Z,6.80
2019-01-26T15:42:20.216Z,6.70
2019-01-26T15:44:50.106Z,6.60
2019-01-26T15:47:20.108Z,6.60
2019-01-26T15:49:52.443Z,6.50
2019-01-26T15:52:22.370Z,6.60
2019-01-26T15:54:52.252Z,6.50
2019-01-26T15:57:22.110Z,6.50
2019-01-26T15:59:53.512Z,6.50
2019-01-26T16:02:23.642Z,6.40
2019-01-26T16:05:12.583Z,6.50
2019-01-26T16:07:45.728Z,6.50
2019-01-26T16:10:18.008Z,6.40
2019-01-26T16:12:47.955Z,6.40
2019-01-26T16:15:22.564Z,6.50
2019-01-26T16:17:52.660Z,6.50
2019-01-26T16:20:23.211Z,6.50
2019-01-26T16:22:53.157Z,6.50
2019-01-26T16:25:23.003Z,6.50
2019-01-26T16:27:53.043Z,6.40
2019-01-26T16:30:28.627Z,6.40
2019-01-26T16:33:01.488Z,6.40
2019-01-26T16:35:31.400Z,6.40
2019-01-26T16:38:01.313Z,6.40
2019-01-26T16:40:34.093Z,6.30
2019-01-26T16:43:04.048Z,6.20
2019-01-26T16:45:37.575Z,6.30
2019-01-26T16:48:11.158Z,6.40
2019-01-26T16:50:40.988Z,6.30
2019-01-26T16:53:10.963Z,6.40
2019-01-26T16:55:40.884Z,6.40
2019-01-26T16:58:11.367Z,6.30
2019-01-26T17:00:52.532Z,6.30
2019-01-26T17:03:22.392Z,6.30
2019-01-26T17:05:52.316Z,6.30
2019-01-26T17:08:22.252Z,6.30
2019-01-26T17:10:52.104Z,6.30
2019-01-26T17:13:22.020Z,6.30
2019-01-26T17:15:52.174Z,6.30
2019-01-26T17:18:24.123Z,6.30
2019-01-26T17:20:54.127Z,6.40
2019-01-26T17:23:24.146Z,6.30
2019-01-26T17:25:54.103Z,6.30
2019-01-26T17:28:24.218Z,6.30
2019-01-26T17:30:54.026Z,6.30
2019-01-26T17:33:23.878Z,6.30
2019-01-26T17:35:53.799Z,6.30
2019-01-26T17:38:23.746Z,6.20
2019-01-26T17:40:54.558Z,6.30
2019-01-26T17:43:24.717Z,6.20
2019-01-26T17:45:54.738Z,6.10
2019-01-26T17:48:27.077Z,6.10
2019-01-26T17:50:56.881Z,6.10
2019-01-26T17:53:27.101Z,6.10
2019-01-26T17:55:57.034Z,6.20
2019-01-26T17:58:30.686Z,6.10
2019-01-26T18:01:01.848Z,6.10
2019-01-26T18:03:33.067Z,6.10
2019-01-26T18:06:02.927Z,6.10
2019-01-26T18:08:33.104Z,6.10
2019-01-26T18:11:02.927Z,6.10
2019-01-26T18:13:32.944Z,6.10
2019-01-26T18:16:02.828Z,6.10
2019-01-26T18:18:32.769Z,6.00
2019-01-26T18:21:03.982Z,6.00
2019-01-26T18:23:34.963Z,6.00
2019-01-26T18:26:05.771Z,6.00
2019-01-26T18:28:35.745Z,6.00
2019-01-26T18:31:05.947Z,6.00
2019-01-26T18:33:35.855Z,6.00
2019-01-26T18:36:08.768Z,6.00
2019-01-26T18:38:38.704Z,6.00
2019-01-26T18:41:08.710Z,6.00
2019-01-26T18:43:38.729Z,6.00
2019-01-26T18:46:08.775Z,6.00
2019-01-26T18:48:38.710Z,6.00
2019-01-26T18:51:08.544Z,6.10
2019-01-26T18:53:38.410Z,6.10
2019-01-26T18:56:08.254Z,6.00
2019-01-26T18:58:39.974Z,6.10
2019-01-26T19:01:12.834Z,6.00
2019-01-26T19:04:06.638Z,6.10
2019-01-26T19:06:38.527Z,6.00
2019-01-26T19:09:11.501Z,6.10
2019-01-26T19:11:41.379Z,6.10
2019-01-26T19:14:11.289Z,6.00
2019-01-26T19:16:41.134Z,6.00
2019-01-26T19:19:10.943Z,6.00
2019-01-26T19:21:41.106Z,6.00
2019-01-26T19:24:10.925Z,6.00
2019-01-26T19:26:40.796Z,6.00
2019-01-26T19:29:12.523Z,6.00
2019-01-26T19:31:42.377Z,6.00
2019-01-26T19:34:12.428Z,6.00
2019-01-26T19:36:42.254Z,6.00
2019-01-26T19:39:12.203Z,6.00
2019-01-26T19:41:42.034Z,6.00
2019-01-26T19:44:11.896Z,6.00
2019-01-26T19:46:41.758Z,6.00
2019-01-26T19:49:11.681Z,6.00
2019-01-26T19:51:41.627Z,6.00
2019-01-26T19:54:11.632Z,6.00
2019-01-26T19:56:42.787Z,6.00
2019-01-26T19:59:12.588Z,6.00
2019-01-26T20:01:42.501Z,6.10
2019-01-26T20:04:12.325Z,6.10
2019-01-26T20:06:42.219Z,6.10
2019-01-26T20:09:12.235Z,6.10
2019-01-26T20:11:42.214Z,6.10
2019-01-26T20:14:12.040Z,6.10
2019-01-26T20:16:41.994Z,6.00
2019-01-26T20:19:11.902Z,6.10
2019-01-26T20:21:41.694Z,6.10
2019-01-26T20:24:12.525Z,6.00
2019-01-26T20:26:42.533Z,6.10
2019-01-26T20:29:13.803Z,6.10
2019-01-26T20:31:43.727Z,6.10
2019-01-26T20:34:13.584Z,6.10
2019-01-26T20:36:43.414Z,6.10
2019-01-26T20:39:13.302Z,6.10
2019-01-26T20:41:43.331Z,6.10
2019-01-26T20:44:13.184Z,6.10
2019-01-26T20:46:43.064Z,6.20
2019-01-26T20:49:13.266Z,6.10
2019-01-26T20:51:43.194Z,6.10
2019-01-26T20:54:13.022Z,6.20
2019-01-26T20:56:42.870Z,6.20
2019-01-26T20:59:13.025Z,6.20
2019-01-26T21:01:43.205Z,6.30
2019-01-26T21:04:13.137Z,6.30
2019-01-26T21:06:43.938Z,6.40
2019-01-26T21:09:13.798Z,6.30
2019-01-26T21:11:43.706Z,6.30
2019-01-26T21:14:13.930Z,6.30
2019-01-26T21:16:43.731Z,6.40
2019-01-26T21:19:13.677Z,6.40
2019-01-26T21:21:43.529Z,6.40
2019-01-26T21:24:13.561Z,6.30
2019-01-26T21:26:43.522Z,6.30
2019-01-26T21:29:19.692Z,6.30
2019-01-26T21:31:49.725Z,6.30
2019-01-26T21:34:22.598Z,6.30
2019-01-26T21:36:52.508Z,6.30
2019-01-26T21:39:22.350Z,6.30
2019-01-26T21:41:52.240Z,6.30
2019-01-26T21:44:22.122Z,6.30
2019-01-26T21:46:52.331Z,6.30
2019-01-26T21:49:22.458Z,6.30
2019-01-26T21:51:52.280Z,6.30
2019-01-26T21:54:22.250Z,6.20
2019-01-26T21:56:52.083Z,6.20
2019-01-26T21:59:21.903Z,6.20
2019-01-26T22:01:53.366Z,6.20
2019-01-26T22:04:23.318Z,6.10
2019-01-26T22:06:53.273Z,6.10
2019-01-26T22:09:23.212Z,6.10
2019-01-26T22:11:53.118Z,6.10
2019-01-26T22:14:23.135Z,6.20
2019-01-26T22:16:53.089Z,6.20
2019-01-26T22:19:23.085Z,6.20
2019-01-26T22:21:52.978Z,6.20
2019-01-26T22:24:22.849Z,6.20
2019-01-26T22:26:52.795Z,6.20
2019-01-26T22:29:22.605Z,6.20
2019-01-26T22:31:52.477Z,6.20
2019-01-26T22:34:22.347Z,6.20
2019-01-26T22:36:52.167Z,6.20
2019-01-26T22:39:22.056Z,6.20
2019-01-26T22:41:51.966Z,6.30
2019-01-26T22:44:21.962Z,6.30
2019-01-26T22:46:51.784Z,6.30
2019-01-26T22:49:21.668Z,6.30
2019-01-26T22:51:53.391Z,6.30
2019-01-26T22:54:23.031Z,6.40
2019-01-26T22:56:53.317Z,6.30
2019-01-26T22:59:23.189Z,6.30
2019-01-26T23:01:53.109Z,6.30
2019-01-26T23:04:59.966Z,6.30
2019-01-26T23:07:54.607Z,6.30
2019-01-26T23:11:02.515Z,6.40
2019-01-26T23:14:15.865Z,6.30
2019-01-26T23:17:27.513Z,6.20
2019-01-26T23:20:07.621Z,6.30
2019-01-26T23:23:29.264Z,6.20
2019-01-26T23:26:30.215Z,6.20
2019-01-26T23:29:25.101Z,6.10
2019-01-26T23:31:54.944Z,6.10
2019-01-26T23:34:24.865Z,6.10
2019-01-26T23:36:55.122Z,6.10
2019-01-26T23:39:24.957Z,6.10
2019-01-26T23:41:54.809Z,6.10
2019-01-26T23:44:24.704Z,6.00
2019-01-26T23:46:54.565Z,6.00
2019-01-26T23:49:24.427Z,6.10
2019-01-26T23:51:54.260Z,6.10
2019-01-26T23:54:24.084Z,6.10
2019-01-26T23:56:54.919Z,6.10
2019-01-26T23:59:24.796Z,6.00
